SORKJOSEN current weather conditions

sailwx.info

Wind at 2 knots

Air temperature 1.0° C
Visibility: greater than 5.4 NM
Dewpoint 1.0° C
Present weather: Light rain showers.

Last reported at 2020-Jan-20 18:50 UTC.
Time now 2020-Jan-20 21:42 UTC

Location: N 69°47' E 020°58'.
View on Google Maps.

See reports from other nearby stations

  
Tides and Currents Weather Stations Pressure Air Temp Water Temp Dewpoint Dewpoint Depression Visibility Wind Speed Wind Dir Waves Ship Positions
date/time (UTC)wind fromknots sea level pressurealtimeterstation pressurevisibilityair tempwater tempwave heightnotes
2020-Jan-20 18:50 5.4 1.0 Light rain showers.
2020-Jan-20 17:50 170 2 5.4-0.0 Light drizzle.
2020-Jan-20 15:50 160 2 5.4-0.0 Light rain showers.
2020-Jan-20 14:50 5.4-0.0 Light rain showers.
2020-Jan-20 13:50 5.4-0.0 Light rain showers.
2020-Jan-20 12:20 5.4 1.0 Light rain showers.
2020-Jan-20 10:50 140 9 5.4 1.0 Light rain showers.
2020-Jan-20 10:20 120 9 5.4 1.0
2020-Jan-20 09:50 5.4 1.0 Light rain showers.
2020-Jan-20 09:20 160 4 5.4 1.0 Light rain showers.
2020-Jan-20 08:50 5.4 1.0 Showers in the vicinity.
2020-Jan-20 08:20 160 5 2.7 1.0 Light snow showers.
2020-Jan-20 07:50 4.9 1.0 Light snow showers.
2020-Jan-20 07:20 130 6 5.4-0.0 Showers in the vicinity.
2020-Jan-20 06:20 200 5 4.3 1.0 Light snow showers.
2020-Jan-20 05:50 200 6 4.3 1.0 Light snow showers.
2020-Jan-20 05:20 240 2 5.4-0.0
2020-Jan-20 04:50 120 5 5.4-1.0
2020-Jan-19 19:20 150 19 5.4-6.0
2020-Jan-19 18:50 140 19 5.4-5.0
2020-Jan-19 18:20 150 18 5.4-5.0
2020-Jan-19 17:50 160 12 5.4-5.0
2020-Jan-19 17:20 140 21 5.4-6.0
2020-Jan-19 16:50 170 13 5.4-4.0
2020-Jan-19 13:20 150 19 5.4-7.0
2020-Jan-19 12:50 150 17 5.4-7.0
2020-Jan-19 12:20 150 19 5.4-7.0
2020-Jan-19 11:50 160 14 5.4-7.0
2020-Jan-19 11:20 160 14 5.4-6.0